createdAt,value
2022-12-04T00:01:07.303Z,9.16
2022-12-04T00:03:58.678Z,9.17
2022-12-04T00:06:47.346Z,9.13
2022-12-04T00:09:36.402Z,9.12
2022-12-04T00:12:26.012Z,9.14
2022-12-04T00:15:25.334Z,9.17
2022-12-04T00:18:14.507Z,9.16
2022-12-04T00:21:06.040Z,9.16
2022-12-04T00:23:55.468Z,9.17
2022-12-04T00:26:44.232Z,9.17
2022-12-04T00:29:33.367Z,9.17
2022-12-04T00:32:23.458Z,9.16
2022-12-04T00:35:12.157Z,9.15
2022-12-04T00:38:00.826Z,9.14
2022-12-04T00:40:51.304Z,9.17
2022-12-04T00:43:40.291Z,9.15
2022-12-04T00:46:29.801Z,9.17
2022-12-04T00:49:19.902Z,9.19
2022-12-04T00:52:09.033Z,9.17
2022-12-04T00:54:57.809Z,9.17
2022-12-04T00:57:46.840Z,9.17
2022-12-04T01:00:36.151Z,9.17
2022-12-04T01:03:24.830Z,9.17
2022-12-04T01:06:22.895Z,9.18
2022-12-04T01:09:12.805Z,9.18
2022-12-04T01:12:01.942Z,9.17
2022-12-04T01:14:50.632Z,9.19
2022-12-04T01:17:39.400Z,9.19
2022-12-04T01:20:28.075Z,9.18
2022-12-04T01:23:18.857Z,9.19
2022-12-04T01:26:07.742Z,9.20
2022-12-04T01:28:56.611Z,9.22
2022-12-04T01:31:45.301Z,9.22
2022-12-04T01:34:34.003Z,9.19
2022-12-04T01:37:23.500Z,9.16
2022-12-04T01:40:18.007Z,9.14
2022-12-04T01:43:10.697Z,9.14
2022-12-04T01:46:01.134Z,9.15
2022-12-04T01:48:54.384Z,9.16
2022-12-04T01:51:48.243Z,9.17
2022-12-04T01:54:43.092Z,9.11
2022-12-04T01:57:35.824Z,9.10
2022-12-04T02:00:25.625Z,9.09
2022-12-04T02:03:15.031Z,9.06
2022-12-04T02:06:03.784Z,9.07
2022-12-04T02:08:55.794Z,9.07
2022-12-04T02:11:53.264Z,9.08
2022-12-04T02:14:53.739Z,9.07
2022-12-04T02:17:53.873Z,9.03
2022-12-04T02:20:49.797Z,9.01
2022-12-04T02:24:20.247Z,9.00
2022-12-04T02:27:21.006Z,8.98
2022-12-04T02:30:14.575Z,8.98
2022-12-04T02:33:09.037Z,9.00
2022-12-04T02:36:06.220Z,8.99
2022-12-04T02:39:05.775Z,8.99
2022-12-04T02:42:00.597Z,8.97
2022-12-04T02:44:54.534Z,8.95
2022-12-04T02:47:47.018Z,8.95
2022-12-04T02:50:39.056Z,8.95
2022-12-04T02:53:32.826Z,8.93
2022-12-04T02:56:27.228Z,8.92
2022-12-04T02:59:21.368Z,8.91
2022-12-04T03:02:15.713Z,8.91
2022-12-04T03:05:12.387Z,8.93
2022-12-04T03:08:06.125Z,8.94
2022-12-04T03:10:58.411Z,8.93
2022-12-04T03:13:51.047Z,8.94
2022-12-04T03:16:42.935Z,8.96
2022-12-04T03:19:41.016Z,8.98
2022-12-04T03:22:32.994Z,8.99
2022-12-04T03:25:23.668Z,9.01
2022-12-04T03:28:23.959Z,9.01
2022-12-04T03:31:12.973Z,9.01
2022-12-04T03:34:06.054Z,9.05
2022-12-04T03:36:59.105Z,9.08
2022-12-04T03:40:00.970Z,9.06
2022-12-04T03:42:55.951Z,9.03
2022-12-04T03:45:52.203Z,9.03
2022-12-04T03:48:46.528Z,9.05
2022-12-04T03:51:40.979Z,9.07
2022-12-04T03:54:34.827Z,9.04
2022-12-04T03:57:31.801Z,9.04
2022-12-04T04:00:23.020Z,9.02
2022-12-04T04:03:16.467Z,9.04
2022-12-04T04:06:11.855Z,9.02
2022-12-04T04:09:06.122Z,9.00
2022-12-04T04:12:01.524Z,8.98
2022-12-04T04:15:12.414Z,9.00
2022-12-04T04:18:20.357Z,8.97
2022-12-04T04:21:26.579Z,8.96
2022-12-04T04:24:30.468Z,8.96
2022-12-04T04:27:19.176Z,8.95
2022-12-04T04:30:11.175Z,8.96
2022-12-04T04:33:07.321Z,8.97
2022-12-04T04:36:02.639Z,8.96
2022-12-04T04:39:02.095Z,8.95
2022-12-04T04:41:57.150Z,8.95
2022-12-04T04:44:52.515Z,8.98
2022-12-04T04:47:48.734Z,8.97
2022-12-04T04:50:38.727Z,9.00
2022-12-04T04:53:33.181Z,9.01
2022-12-04T04:56:23.095Z,9.02
2022-12-04T04:59:12.175Z,9.02
2022-12-04T05:02:00.958Z,9.03
2022-12-04T05:04:51.429Z,9.02
2022-12-04T05:07:40.257Z,9.04
2022-12-04T05:10:28.925Z,9.03
2022-12-04T05:13:18.853Z,9.03
2022-12-04T05:16:14.477Z,9.03
2022-12-04T05:19:20.880Z,9.01
2022-12-04T05:22:12.364Z,8.98
2022-12-04T05:25:02.120Z,8.93
2022-12-04T05:27:50.825Z,8.91
2022-12-04T05:30:39.683Z,8.90
2022-12-04T05:33:28.492Z,8.87
2022-12-04T05:36:17.556Z,8.89
2022-12-04T05:39:07.648Z,8.87
2022-12-04T05:41:56.539Z,8.87
2022-12-04T05:44:45.214Z,8.87
2022-12-04T05:47:33.877Z,8.87
2022-12-04T05:50:22.548Z,8.86
2022-12-04T05:53:11.269Z,8.86
2022-12-04T05:56:03.580Z,8.87
2022-12-04T05:58:52.280Z,8.91
2022-12-04T06:01:41.748Z,8.94
2022-12-04T06:04:30.456Z,8.94
2022-12-04T06:07:19.103Z,8.94
2022-12-04T06:10:08.745Z,8.95
2022-12-04T06:12:59.659Z,8.97
2022-12-04T06:15:48.342Z,9.00
2022-12-04T06:18:37.370Z,9.03
2022-12-04T06:21:30.446Z,9.05
2022-12-04T06:24:22.776Z,9.02
2022-12-04T06:27:27.413Z,8.98
2022-12-04T06:30:18.398Z,8.96
2022-12-04T06:33:07.450Z,8.94
2022-12-04T06:36:00.938Z,8.94
2022-12-04T06:38:50.239Z,8.93
2022-12-04T06:41:38.861Z,8.94
2022-12-04T06:44:28.177Z,8.94
2022-12-04T06:47:18.207Z,8.94
2022-12-04T06:50:09.036Z,8.94
2022-12-04T06:52:57.619Z,8.93
2022-12-04T06:55:49.777Z,8.94
2022-12-04T06:58:38.820Z,8.92
2022-12-04T07:01:30.381Z,8.92
2022-12-04T07:04:20.541Z,8.90
2022-12-04T07:07:10.480Z,8.91
2022-12-04T07:09:59.147Z,8.92
2022-12-04T07:12:47.919Z,8.88
2022-12-04T07:15:37.718Z,8.87
2022-12-04T07:18:26.392Z,8.90
2022-12-04T07:21:19.518Z,8.86
2022-12-04T07:24:09.261Z,8.85
2022-12-04T07:26:57.894Z,8.84
2022-12-04T07:29:46.538Z,8.83
2022-12-04T07:32:35.339Z,8.85
2022-12-04T07:35:24.075Z,8.86
2022-12-04T07:38:14.369Z,8.86
2022-12-04T07:41:05.374Z,8.88
2022-12-04T07:43:55.208Z,8.91
2022-12-04T07:46:44.690Z,8.91
2022-12-04T07:49:33.494Z,8.93
2022-12-04T07:52:22.138Z,8.93
2022-12-04T07:55:12.905Z,8.95
2022-12-04T07:58:01.854Z,8.97
2022-12-04T08:00:50.649Z,8.99
2022-12-04T08:03:45.207Z,9.01
2022-12-04T08:06:36.624Z,8.99
2022-12-04T08:09:25.273Z,9.00
2022-12-04T08:12:15.739Z,9.00
2022-12-04T08:15:06.836Z,9.00
2022-12-04T08:17:55.956Z,9.01
2022-12-04T08:20:44.677Z,9.00
2022-12-04T08:23:33.598Z,9.00
2022-12-04T08:26:26.077Z,9.00
2022-12-04T08:29:16.206Z,9.00
2022-12-04T08:32:05.374Z,8.98
2022-12-04T08:34:55.921Z,8.98
2022-12-04T08:37:44.911Z,8.99
2022-12-04T08:40:33.626Z,9.01
2022-12-04T08:43:22.314Z,9.05
2022-12-04T08:46:15.800Z,9.07
2022-12-04T08:49:05.101Z,9.07
2022-12-04T08:51:53.754Z,9.06
2022-12-04T08:54:42.410Z,9.04
2022-12-04T08:57:31.071Z,9.04
2022-12-04T09:00:20.671Z,9.03
2022-12-04T09:03:13.007Z,9.01
2022-12-04T09:06:02.239Z,9.00
2022-12-04T09:08:55.258Z,9.01
2022-12-04T09:11:47.042Z,9.02
2022-12-04T09:14:35.699Z,9.04
2022-12-04T09:17:24.276Z,9.03
2022-12-04T09:20:15.043Z,9.05
2022-12-04T09:23:05.206Z,9.02
2022-12-04T09:25:55.274Z,9.01
2022-12-04T09:28:43.910Z,9.00
2022-12-04T09:31:33.830Z,9.02
2022-12-04T09:34:22.471Z,9.04
2022-12-04T09:37:12.927Z,9.06
2022-12-04T09:40:01.569Z,9.06
2022-12-04T09:42:57.532Z,9.09
2022-12-04T09:45:52.558Z,9.12
2022-12-04T09:48:44.292Z,9.14
2022-12-04T09:51:35.943Z,9.16
2022-12-04T09:54:33.074Z,9.20
2022-12-04T09:57:30.553Z,9.22
2022-12-04T10:00:21.480Z,9.24
2022-12-04T10:03:17.514Z,9.24
2022-12-04T10:06:14.821Z,9.24
2022-12-04T10:09:11.184Z,9.20
2022-12-04T10:12:16.146Z,9.17
2022-12-04T10:15:20.493Z,9.17
2022-12-04T10:18:36.263Z,9.16
2022-12-04T10:21:43.930Z,9.17
2022-12-04T10:24:43.363Z,9.19
2022-12-04T10:27:41.414Z,9.20
2022-12-04T10:30:32.850Z,9.16
2022-12-04T10:33:31.617Z,9.16
2022-12-04T10:36:23.960Z,9.16
2022-12-04T10:39:21.923Z,9.19
2022-12-04T10:42:24.650Z,9.20
2022-12-04T10:45:15.574Z,9.20
2022-12-04T10:48:04.324Z,9.22
2022-12-04T10:50:53.031Z,9.22
2022-12-04T10:53:42.323Z,9.22
2022-12-04T10:56:30.959Z,9.23
2022-12-04T10:59:19.696Z,9.25
2022-12-04T11:02:22.713Z,9.27
2022-12-04T11:05:28.169Z,9.28
2022-12-04T11:08:25.299Z,9.27
2022-12-04T11:11:16.286Z,9.26
2022-12-04T11:14:17.956Z,9.24
2022-12-04T11:17:08.064Z,9.23
2022-12-04T11:20:09.223Z,9.25
2022-12-04T11:22:59.748Z,9.26
2022-12-04T11:25:50.792Z,9.29
2022-12-04T11:28:51.895Z,9.31
2022-12-04T11:31:41.431Z,9.34
2022-12-04T11:34:37.079Z,9.37
2022-12-04T11:37:31.689Z,9.37
2022-12-04T11:40:21.894Z,9.36
2022-12-04T11:43:15.829Z,9.39
2022-12-04T11:46:07.510Z,9.40
2022-12-04T11:48:56.246Z,9.37
2022-12-04T11:51:54.528Z,9.39
2022-12-04T11:54:57.694Z,9.39
2022-12-04T11:57:57.250Z,9.40
2022-12-04T12:00:55.205Z,9.41
2022-12-04T12:03:57.968Z,9.42
2022-12-04T12:07:03.482Z,9.41
2022-12-04T12:10:02.865Z,9.41
2022-12-04T12:13:03.359Z,9.41
2022-12-04T12:16:03.868Z,9.42
2022-12-04T12:19:09.435Z,9.43
2022-12-04T12:22:09.146Z,9.43
2022-12-04T12:25:08.124Z,9.42
2022-12-04T12:28:14.909Z,9.43
2022-12-04T12:31:24.039Z,9.42
2022-12-04T12:34:19.246Z,9.42
2022-12-04T12:37:19.939Z,9.40
2022-12-04T12:40:17.262Z,9.39
2022-12-04T12:43:13.496Z,9.39
2022-12-04T12:46:07.970Z,9.39
2022-12-04T12:49:04.727Z,9.41
2022-12-04T12:51:58.497Z,9.39
2022-12-04T12:54:54.680Z,9.39
2022-12-04T12:57:50.788Z,9.41
2022-12-04T13:00:47.112Z,9.42
2022-12-04T13:03:46.594Z,9.42
2022-12-04T13:06:41.030Z,9.43
2022-12-04T13:09:34.009Z,9.43
2022-12-04T13:12:23.946Z,9.44
2022-12-04T13:15:17.589Z,9.49
2022-12-04T13:18:09.575Z,9.53
2022-12-04T13:21:02.028Z,9.53
2022-12-04T13:24:05.686Z,9.52
2022-12-04T13:27:01.370Z,9.51
2022-12-04T13:30:05.658Z,9.49
2022-12-04T13:33:42.300Z,9.50
2022-12-04T13:36:52.485Z,9.50
2022-12-04T13:40:29.642Z,9.49
2022-12-04T13:43:35.503Z,9.48
2022-12-04T13:46:34.121Z,9.49
2022-12-04T13:49:29.785Z,9.52
2022-12-04T13:52:26.027Z,9.56
2022-12-04T13:55:33.566Z,9.58
2022-12-04T13:58:30.616Z,9.57
2022-12-04T14:01:30.847Z,9.58
2022-12-04T14:04:29.869Z,9.59
2022-12-04T14:07:29.387Z,9.59
2022-12-04T14:10:29.962Z,9.60
2022-12-04T14:13:23.055Z,9.61
2022-12-04T14:16:23.302Z,9.62
2022-12-04T14:19:32.426Z,9.62
2022-12-04T14:22:31.168Z,9.62
2022-12-04T14:25:36.598Z,9.65
2022-12-04T14:28:42.693Z,9.66
2022-12-04T14:31:36.628Z,9.64
2022-12-04T14:34:31.824Z,9.65
2022-12-04T14:37:28.133Z,9.64
2022-12-04T14:40:24.267Z,9.64
2022-12-04T14:43:20.948Z,9.64
2022-12-04T14:46:21.953Z,9.64
2022-12-04T14:49:35.726Z,9.62
2022-12-04T14:52:32.160Z,9.61
2022-12-04T14:55:33.159Z,9.61
2022-12-04T14:58:34.691Z,9.61
2022-12-04T15:01:29.312Z,9.63
2022-12-04T15:04:28.981Z,9.64
2022-12-04T15:07:25.583Z,9.66
2022-12-04T15:10:40.759Z,9.69
2022-12-04T15:13:32.069Z,9.66
2022-12-04T15:16:22.876Z,9.66
2022-12-04T15:19:21.240Z,9.67
2022-12-04T15:22:21.068Z,9.70
2022-12-04T15:25:19.362Z,9.70
2022-12-04T15:28:15.756Z,9.72
2022-12-04T15:31:07.618Z,9.73
2022-12-04T15:34:00.244Z,9.75
2022-12-04T15:36:52.808Z,9.76
2022-12-04T15:39:42.078Z,9.73
2022-12-04T15:42:32.221Z,9.72
2022-12-04T15:45:31.915Z,9.70
2022-12-04T15:48:29.327Z,9.66
2022-12-04T15:51:21.983Z,9.65
2022-12-04T15:54:17.230Z,9.66
2022-12-04T15:57:08.759Z,9.67
2022-12-04T16:00:01.266Z,9.68
2022-12-04T16:02:50.711Z,9.68
2022-12-04T16:05:40.163Z,9.70
2022-12-04T16:08:33.119Z,9.71
2022-12-04T16:11:34.583Z,9.70
2022-12-04T16:14:23.232Z,9.66
2022-12-04T16:17:14.985Z,9.65
2022-12-04T16:20:08.205Z,9.61
2022-12-04T16:22:56.944Z,9.58
2022-12-04T16:25:47.310Z,9.58
2022-12-04T16:28:38.570Z,9.59
2022-12-04T16:31:28.016Z,9.60
2022-12-04T16:34:18.430Z,9.59
2022-12-04T16:37:13.717Z,9.60
2022-12-04T16:40:06.416Z,9.62
2022-12-04T16:42:55.162Z,9.62
2022-12-04T16:45:47.662Z,9.65
2022-12-04T16:48:37.671Z,9.66
2022-12-04T16:51:28.767Z,9.66
2022-12-04T16:54:17.760Z,9.64
2022-12-04T16:57:06.447Z,9.64
2022-12-04T16:59:55.461Z,9.64
2022-12-04T17:02:45.500Z,9.65
2022-12-04T17:05:35.868Z,9.66
2022-12-04T17:08:26.002Z,9.67
2022-12-04T17:11:17.054Z,9.68
2022-12-04T17:14:07.960Z,9.70
2022-12-04T17:16:58.711Z,9.71
2022-12-04T17:19:48.331Z,9.69
2022-12-04T17:22:37.077Z,9.71
2022-12-04T17:25:27.160Z,9.72
2022-12-04T17:28:15.862Z,9.71
2022-12-04T17:31:06.229Z,9.70
2022-12-04T17:33:55.945Z,9.67
2022-12-04T17:36:44.795Z,9.67
2022-12-04T17:39:33.825Z,9.67
2022-12-04T17:42:24.309Z,9.67
2022-12-04T17:45:14.431Z,9.67
2022-12-04T17:48:03.297Z,9.66
2022-12-04T17:51:04.750Z,9.66
2022-12-04T17:53:53.953Z,9.63
2022-12-04T17:56:47.787Z,9.63
2022-12-04T17:59:40.644Z,9.63
2022-12-04T18:02:29.348Z,9.63
2022-12-04T18:05:18.207Z,9.64
2022-12-04T18:08:07.122Z,9.62
2022-12-04T18:10:56.984Z,9.61
2022-12-04T18:13:45.733Z,9.62
2022-12-04T18:16:39.760Z,9.61
2022-12-04T18:19:30.430Z,9.62
2022-12-04T18:22:19.521Z,9.64
2022-12-04T18:25:10.492Z,9.66
2022-12-04T18:28:01.057Z,9.67
2022-12-04T18:30:49.860Z,9.65
2022-12-04T18:33:42.306Z,9.63
2022-12-04T18:36:32.581Z,9.59
2022-12-04T18:39:24.626Z,9.56
2022-12-04T18:42:13.311Z,9.54
2022-12-04T18:45:02.615Z,9.52
2022-12-04T18:47:51.399Z,9.54
2022-12-04T18:50:43.366Z,9.53
2022-12-04T18:53:32.093Z,9.51
2022-12-04T18:56:21.553Z,9.53
2022-12-04T18:59:14.258Z,9.55
2022-12-04T19:02:03.034Z,9.57
2022-12-04T19:04:51.916Z,9.59
2022-12-04T19:07:42.156Z,9.59
2022-12-04T19:10:32.049Z,9.59
2022-12-04T19:13:21.097Z,9.59
2022-12-04T19:16:13.453Z,9.61
2022-12-04T19:19:02.813Z,9.60
2022-12-04T19:21:51.459Z,9.60
2022-12-04T19:24:41.951Z,9.55
2022-12-04T19:27:30.609Z,9.53
2022-12-04T19:30:19.629Z,9.54
2022-12-04T19:33:08.345Z,9.57
2022-12-04T19:36:03.154Z,9.59
2022-12-04T19:38:53.391Z,9.58
2022-12-04T19:41:43.565Z,9.58
2022-12-04T19:44:49.486Z,9.59
2022-12-04T19:47:38.652Z,9.58
2022-12-04T19:50:27.466Z,9.57
2022-12-04T19:53:16.224Z,9.56
2022-12-04T19:56:07.467Z,9.55
2022-12-04T19:59:00.167Z,9.53
2022-12-04T20:01:49.210Z,9.53
2022-12-04T20:04:39.579Z,9.54
2022-12-04T20:07:30.499Z,9.53
2022-12-04T20:10:20.907Z,9.53
2022-12-04T20:13:09.609Z,9.53
2022-12-04T20:16:04.063Z,9.55
2022-12-04T20:18:54.899Z,9.55
2022-12-04T20:21:44.362Z,9.57
2022-12-04T20:24:33.085Z,9.58
2022-12-04T20:27:21.779Z,9.55
2022-12-04T20:30:11.667Z,9.53
2022-12-04T20:33:01.753Z,9.49
2022-12-04T20:35:50.512Z,9.48
2022-12-04T20:38:40.317Z,9.49
2022-12-04T20:41:31.373Z,9.49
2022-12-04T20:44:21.675Z,9.48
2022-12-04T20:47:10.439Z,9.46
2022-12-04T20:50:00.567Z,9.45
2022-12-04T20:52:49.292Z,9.45
2022-12-04T20:55:38.148Z,9.45
2022-12-04T20:58:26.794Z,9.45
2022-12-04T21:01:18.983Z,9.49
2022-12-04T21:04:08.384Z,9.49
2022-12-04T21:06:59.107Z,9.52
2022-12-04T21:09:47.729Z,9.46
2022-12-04T21:12:53.964Z,9.47
2022-12-04T21:16:00.251Z,9.47
2022-12-04T21:18:49.296Z,9.46
2022-12-04T21:21:38.768Z,9.47
2022-12-04T21:24:30.269Z,9.46
2022-12-04T21:27:21.278Z,9.43
2022-12-04T21:30:12.208Z,9.42
2022-12-04T21:33:00.921Z,9.42
2022-12-04T21:35:49.942Z,9.42
2022-12-04T21:38:41.038Z,9.43
2022-12-04T21:41:48.483Z,9.42
2022-12-04T21:44:37.379Z,9.42
2022-12-04T21:47:26.976Z,9.45
2022-12-04T21:50:15.589Z,9.47
2022-12-04T21:53:04.247Z,9.48
2022-12-04T21:55:57.170Z,9.51
2022-12-04T21:58:47.679Z,9.50
2022-12-04T22:01:36.528Z,9.48
2022-12-04T22:04:25.285Z,9.46
2022-12-04T22:07:13.955Z,9.47
2022-12-04T22:10:08.614Z,9.49
2022-12-04T22:12:59.218Z,9.54
2022-12-04T22:15:49.356Z,9.55
2022-12-04T22:18:38.525Z,9.54
2022-12-04T22:21:29.341Z,9.55
2022-12-04T22:24:18.242Z,9.57
2022-12-04T22:27:06.912Z,9.58
2022-12-04T22:29:55.685Z,9.59
2022-12-04T22:32:45.795Z,9.59
2022-12-04T22:35:34.783Z,9.59
2022-12-04T22:38:23.433Z,9.59
2022-12-04T22:41:15.456Z,9.59
2022-12-04T22:44:04.645Z,9.58
2022-12-04T22:46:53.405Z,9.58
2022-12-04T22:49:43.557Z,9.59
2022-12-04T22:52:32.661Z,9.59
2022-12-04T22:55:21.275Z,9.59
2022-12-04T22:58:09.978Z,9.57
2022-12-04T23:00:58.636Z,9.56
2022-12-04T23:03:48.587Z,9.57
2022-12-04T23:06:38.765Z,9.57
2022-12-04T23:09:27.918Z,9.59
2022-12-04T23:12:16.656Z,9.60
2022-12-04T23:15:06.317Z,9.60
2022-12-04T23:17:55.150Z,9.60
2022-12-04T23:20:43.884Z,9.60
2022-12-04T23:23:35.169Z,9.62
2022-12-04T23:26:26.552Z,9.61
2022-12-04T23:29:44.965Z,9.60
2022-12-04T23:32:24.622Z,9.62
2022-12-04T23:35:13.368Z,9.64
2022-12-04T23:38:35.431Z,9.64
2022-12-04T23:41:26.947Z,9.61
2022-12-04T23:44:15.678Z,9.60
2022-12-04T23:47:04.650Z,9.60
2022-12-04T23:49:53.338Z,9.62
2022-12-04T23:52:42.004Z,9.63
2022-12-04T23:55:34.519Z,9.64
2022-12-04T23:58:23.649Z,9.65
